Time;durP1;ratioP1;P1;durP2;ratioP2;P2;SDS_P1;SDS_P2;PMS_P1;PMS_P2;Temp;Humidity;BMP_temperature;BMP_pressure;BME280_temperature;BME280_humidity;BME280_pressure;Samples;Min_cycle;Max_cycle;Signal;HPM_P1;HPM_P2
2022/10/06 00:02:18;;;;;;;4.95;4.65;;;;;;;11.13;100.00;101437.44;5996209;23;20242;-74
2022/10/06 00:04:54;;;;;;;4.85;4.65;;;;;;;12.94;100.00;101704.84;5980885;23;20051;-74
2022/10/06 00:07:37;;;;;;;4.80;4.60;;;;;;;12.26;100.00;101612.22;5953795;23;20023;-74
2022/10/06 00:10:30;;;;;;;4.90;4.60;;;;;;;13.54;100.00;101819.88;5964142;24;20016;-74
2022/10/06 00:13:03;;;;;;;4.65;4.45;;;;;;;13.52;100.00;101812.03;5952120;23;20035;-74
2022/10/06 00:15:48;;;;;;;5.00;4.80;;;;;;;12.60;100.00;101663.38;5962816;23;20087;-74
2022/10/06 00:18:21;;;;;;;5.82;5.53;;;;;;;13.51;100.00;101820.88;5917542;24;20024;-75
2022/10/06 00:21:04;;;;;;;4.90;4.70;;;;;;;13.37;100.00;101804.84;5949352;24;20024;-74
2022/10/06 00:23:46;;;;;;;5.00;4.70;;;;;;;13.50;100.00;101826.22;5986224;23;20008;-74
2022/10/06 00:26:27;;;;;;;4.70;4.50;;;;;;;12.26;100.00;101628.03;5958388;23;20046;-73
2022/10/06 00:29:13;;;;;;;5.05;4.78;;;;;;;13.46;100.00;101843.13;5945105;23;20020;-75
2022/10/06 00:31:49;;;;;;;5.07;4.68;;;;;;;12.01;100.00;101590.56;5993721;23;20018;-74
2022/10/06 00:34:26;;;;;;;4.70;4.50;;;;;;;12.21;100.00;101629.16;5964302;23;20023;-74
2022/10/06 00:36:57;;;;;;;5.03;4.75;;;;;;;13.46;100.00;101840.47;5972469;23;20023;-74
2022/10/06 00:39:30;;;;;;;4.97;4.78;;;;;;;11.91;100.00;101601.50;5981899;23;20039;-74
2022/10/06 00:42:10;;;;;;;;;;;;;;;;;;;;;
2022/10/06 00:44:47;;;;;;;4.70;4.50;;;;;;;13.27;100.00;101854.47;5980251;23;20024;-74
2022/10/06 00:47:19;;;;;;;4.57;4.38;;;;;;;9.67;100.00;101266.72;6001481;23;20019;-74
2022/10/06 00:50:10;;;;;;;4.70;4.50;;;;;;;10.74;100.00;101468.81;5984828;23;20102;-74
2022/10/06 00:52:42;;;;;;;4.72;4.53;;;;;;;11.00;100.00;101577.22;5944685;23;20011;-75
2022/10/06 00:55:13;;;;;;;4.70;4.50;;;;;;;12.36;100.00;101763.56;6016331;23;20035;-75
2022/10/06 00:57:58;;;;;;;5.15;4.85;;;;;;;12.88;100.00;101859.72;5958009;23;20340;-75
2022/10/06 01:00:33;;;;;;;4.88;4.68;;;;;;;12.34;100.00;101778.56;5971815;24;20044;-75
2022/10/06 01:03:14;;;;;;;5.20;4.80;;;;;;;12.78;100.00;101864.50;6008333;23;20271;-75
2022/10/06 01:05:50;;;;;;;4.65;4.45;;;;;;;10.01;100.00;101446.31;5995261;23;20019;-76
2022/10/06 01:08:18;;;;;;;5.43;5.07;;;;;;;12.71;100.00;101863.06;5991704;23;20403;-75
2022/10/06 01:10:44;;;;;;;5.05;4.50;;;;;;;12.56;100.00;101848.75;5974596;23;20130;-75
2022/10/06 01:13:12;;;;;;;6.57;4.55;;;;;;;12.36;100.00;101826.75;5997700;23;20037;-75
2022/10/06 01:15:43;;;;;;;4.50;4.30;;;;;;;12.57;100.00;101868.94;5974158;23;20878;-75
2022/10/06 01:18:13;;;;;;;4.70;4.50;;;;;;;12.06;100.00;101797.28;5978339;23;20051;-74
2022/10/06 01:20:49;;;;;;;7.75;5.18;;;;;;;12.55;100.00;101881.31;5997083;23;20011;-74
2022/10/06 01:23:16;;;;;;;5.20;4.90;;;;;;;12.38;100.00;101872.28;5975746;23;20699;-75
2022/10/06 01:25:43;;;;;;;4.63;4.43;;;;;;;12.46;100.00;101889.56;5970264;23;20055;-74
2022/10/06 01:28:12;;;;;;;5.03;4.75;;;;;;;11.98;100.00;101818.63;5981240;23;20027;-74
2022/10/06 01:30:52;;;;;;;5.10;4.80;;;;;;;12.24;100.00;101861.47;5987807;23;20361;-75
2022/10/06 01:33:20;;;;;;;5.20;4.88;;;;;;;12.47;100.00;101893.91;5995397;23;20050;-74
2022/10/06 01:35:49;;;;;;;4.90;4.60;;;;;;;12.22;100.00;101857.19;5997691;23;20062;-75
2022/10/06 01:38:16;;;;;;;4.60;4.40;;;;;;;12.52;100.00;101905.13;5972607;23;20034;-75
2022/10/06 01:40:43;;;;;;;4.95;4.47;;;;;;;12.34;100.00;101901.44;6009636;23;20472;-76
2022/10/06 01:43:10;;;;;;;4.70;4.45;;;;;;;12.42;100.00;101899.34;6007134;23;20027;-74
2022/10/06 01:45:37;;;;;;;4.70;4.50;;;;;;;12.48;100.00;101908.78;5972388;23;20051;-73
2022/10/06 01:48:04;;;;;;;5.20;4.93;;;;;;;12.21;100.00;101868.63;6008822;23;20035;-74
2022/10/06 01:50:30;;;;;;;5.80;4.95;;;;;;;12.03;100.00;101829.00;6001804;23;20032;-74
2022/10/06 01:52:57;;;;;;;4.80;4.50;;;;;;;12.38;100.00;101877.56;6012134;23;20027;-73
2022/10/06 01:55:24;;;;;;;5.28;4.85;;;;;;;12.54;100.00;101903.28;6008409;23;20015;-75
2022/10/06 01:57:51;;;;;;;4.57;4.38;;;;;;;12.09;100.00;101839.28;6017659;23;20050;-74
2022/10/06 02:00:18;;;;;;;5.25;4.88;;;;;;;12.54;100.00;101927.81;5986601;23;20015;-73
2022/10/06 02:02:44;;;;;;;4.80;4.60;;;;;;;12.26;100.00;101882.47;6010915;23;20136;-73
2022/10/06 02:05:11;;;;;;;4.93;4.65;;;;;;;12.50;100.00;101925.38;6011555;23;20027;-73
2022/10/06 02:07:37;;;;;;;5.43;4.90;;;;;;;12.42;100.00;101925.69;6011465;23;20019;-74
2022/10/06 02:10:05;;;;;;;4.60;4.40;;;;;;;12.40;100.00;101942.47;6000992;23;20038;-73
2022/10/06 02:12:31;;;;;;;4.80;4.50;;;;;;;11.83;100.00;101876.25;6008973;23;20586;-74
2022/10/06 02:14:58;;;;;;;4.63;4.43;;;;;;;11.83;100.00;101852.59;6005571;23;20089;-74
2022/10/06 02:17:24;;;;;;;4.95;4.75;;;;;;;12.34;100.00;101949.69;5994901;23;20095;-74
2022/10/06 02:19:51;;;;;;;9.18;4.93;;;;;;;12.33;100.00;101955.03;5976766;23;20031;-74
2022/10/06 02:22:17;;;;;;;8.77;4.97;;;;;;;11.77;100.00;101870.31;5991504;23;20035;-73
2022/10/06 02:24:43;;;;;;;5.95;4.68;;;;;;;11.60;100.00;101856.94;5976756;23;20333;-74
2022/10/06 02:27:10;;;;;;;4.95;4.60;;;;;;;11.31;100.00;101808.94;5988968;23;20618;-73
2022/10/06 02:29:36;;;;;;;4.50;4.30;;;;;;;12.17;100.00;101963.50;5991178;23;20103;-74
2022/10/06 02:32:03;;;;;;;4.50;4.30;;;;;;;12.11;100.00;101952.38;5997758;23;20086;-74
2022/10/06 02:34:29;;;;;;;4.60;4.40;;;;;;;11.70;100.00;101902.16;5996062;23;20030;-73
2022/10/06 02:36:56;;;;;;;4.65;4.45;;;;;;;11.62;100.00;101899.78;5992991;23;20024;-74
2022/10/06 02:39:22;;;;;;;5.32;4.85;;;;;;;11.98;100.00;101968.59;6006663;23;20035;-74
2022/10/06 02:41:49;;;;;;;4.50;4.20;;;;;;;11.73;100.00;101934.44;5979129;23;20094;-74
2022/10/06 02:44:15;;;;;;;4.57;4.38;;;;;;;11.66;100.00;101929.47;6001780;23;20529;-74
2022/10/06 02:46:42;;;;;;;5.28;4.88;;;;;;;12.02;100.00;101981.66;6000448;23;20079;-74
2022/10/06 02:49:08;;;;;;;4.70;4.50;;;;;;;11.66;100.00;101925.06;6008010;23;20042;-75
2022/10/06 02:51:34;;;;;;;11.20;4.57;;;;;;;10.51;100.00;101764.56;6010928;23;20019;-73
2022/10/06 02:54:01;;;;;;;10.60;4.90;;;;;;;11.55;100.00;101928.09;6006477;23;20034;-74
2022/10/06 02:56:27;;;;;;;5.00;4.60;;;;;;;11.38;100.00;101912.94;5977785;23;20030;-74
2022/10/06 02:58:56;;;;;;;4.55;4.35;;;;;;;11.35;100.00;101918.31;5977271;23;20058;-74
2022/10/06 03:01:25;;;;;;;4.50;4.30;;;;;;;11.20;100.00;101894.34;6002815;23;20193;-75
2022/10/06 03:03:52;;;;;;;4.60;4.30;;;;;;;11.83;100.00;102008.63;6001832;23;20712;-74
2022/10/06 03:06:21;;;;;;;4.40;4.20;;;;;;;11.44;100.00;101960.94;5970574;23;20048;-74
2022/10/06 03:08:48;;;;;;;4.93;4.63;;;;;;;11.43;100.00;101957.47;6002692;23;20020;-74
2022/10/06 03:11:21;;;;;;;4.85;4.55;;;;;;;11.80;100.00;102010.50;6003918;23;20039;-74
2022/10/06 03:13:50;;;;;;;9.88;4.60;;;;;;;11.43;100.00;101961.88;6005447;23;20019;-74
2022/10/06 03:16:28;;;;;;;5.07;4.78;;;;;;;11.64;100.00;102004.94;5977545;23;20469;-73
2022/10/06 03:18:55;;;;;;;4.60;4.40;;;;;;;11.12;100.00;101944.53;5967691;23;20474;-74
2022/10/06 03:21:24;;;;;;;6.57;6.13;;;;;;;11.62;100.00;102018.13;5996865;23;20167;-74
2022/10/06 03:23:53;;;;;;;4.80;4.60;;;;;;;11.21;100.00;101974.91;5999312;23;20037;-74
2022/10/06 03:26:22;;;;;;;4.50;4.30;;;;;;;11.17;100.00;101982.88;6001627;23;20051;-74
2022/10/06 03:28:49;;;;;;;5.15;4.75;;;;;;;11.30;100.00;102027.97;5997862;23;20039;-73
2022/10/06 03:31:16;;;;;;;4.50;4.30;;;;;;;11.36;100.00;102014.63;6001452;23;20038;-74
2022/10/06 03:33:43;;;;;;;5.32;5.00;;;;;;;11.32;100.00;102020.06;6005732;23;20480;-73
2022/10/06 03:36:14;;;;;;;6.13;5.10;;;;;;;10.49;100.00;101896.75;5999822;23;20133;-74
2022/10/06 03:38:41;;;;;;;4.70;4.50;;;;;;;11.32;100.00;102048.97;6001391;23;20054;-73
2022/10/06 03:41:09;;;;;;;4.78;4.47;;;;;;;11.30;100.00;102066.53;6005385;23;20027;-73
2022/10/06 03:43:37;;;;;;;4.70;4.50;;;;;;;11.26;100.00;102064.94;5976119;23;20027;-74
2022/10/06 03:46:05;;;;;;;4.70;4.40;;;;;;;11.23;100.00;102067.69;6005756;23;20627;-74
2022/10/06 03:48:33;;;;;;;5.07;4.70;;;;;;;11.01;100.00;102065.75;5994450;23;20032;-74
2022/10/06 03:51:03;;;;;;;5.32;4.93;;;;;;;9.81;100.00;101874.38;5992417;23;20023;-73
2022/10/06 03:53:30;;;;;;;5.13;4.63;;;;;;;11.09;100.00;102084.75;6007203;23;20027;-74
2022/10/06 03:55:59;;;;;;;4.45;4.25;;;;;;;10.07;100.00;101926.88;6003241;23;20031;-74
2022/10/06 03:58:27;;;;;;;6.53;5.00;;;;;;;11.09;100.00;102091.78;5999036;23;20031;-74
2022/10/06 04:01:09;;;;;;;4.75;4.55;;;;;;;11.05;100.00;102101.50;5953363;24;20075;-74
2022/10/06 04:03:36;;;;;;;14.90;5.22;;;;;;;10.86;100.00;102092.47;6006239;23;20035;-74
2022/10/06 04:06:05;;;;;;;4.68;4.47;;;;;;;11.04;100.00;102120.78;5996205;23;20427;-74
2022/10/06 04:08:33;;;;;;;4.60;4.40;;;;;;;10.97;100.00;102124.53;5996926;23;20668;-73
2022/10/06 04:11:10;;;;;;;4.55;4.25;;;;;;;10.63;100.00;102070.41;5999486;23;20035;-74
2022/10/06 04:13:38;;;;;;;4.85;4.60;;;;;;;10.86;100.00;102119.59;5978469;23;20011;-74
2022/10/06 04:16:10;;;;;;;4.85;4.57;;;;;;;10.88;100.00;102127.44;6000678;23;20031;-74
2022/10/06 04:18:37;;;;;;;4.75;4.45;;;;;;;10.10;100.00;102009.84;6003631;23;20454;-74
2022/10/06 04:21:04;;;;;;;6.05;5.50;;;;;;;10.74;100.00;102157.63;5998919;23;20027;-74
2022/10/06 04:23:31;;;;;;;10.00;4.35;;;;;;;10.29;100.00;102083.66;5994674;23;20027;-73
2022/10/06 04:25:59;;;;;;;5.30;4.93;;;;;;;10.70;100.00;102166.47;6006003;23;20023;-73
2022/10/06 04:28:25;;;;;;;5.10;4.75;;;;;;;10.68;100.00;102155.13;5999810;23;20470;-74
2022/10/06 04:30:59;;;;;;;5.20;4.90;;;;;;;10.47;100.00;102134.78;5994789;23;20019;-73
2022/10/06 04:33:27;;;;;;;4.50;4.30;;;;;;;10.65;100.00;102155.25;5969851;23;20086;-73
2022/10/06 04:36:02;;;;;;;4.50;4.20;;;;;;;10.56;100.00;102171.25;5998400;23;20028;-74
2022/10/06 04:38:31;;;;;;;7.35;5.00;;;;;;;10.01;100.00;102081.81;5993268;23;20064;-75
2022/10/06 04:41:13;;;;;;;4.97;4.50;;;;;;;10.49;100.00;102162.69;5999389;23;20030;-74
2022/10/06 04:43:40;;;;;;;4.50;4.30;;;;;;;10.46;100.00;102175.91;5992795;23;20077;-74
2022/10/06 04:46:08;;;;;;;5.05;4.65;;;;;;;9.63;100.00;102062.72;5963478;23;20015;-74
2022/10/06 04:48:55;;;;;;;8.95;5.03;;;;;;;9.72;100.00;102077.31;5977575;23;20526;-74
2022/10/06 04:51:23;;;;;;;4.88;4.68;;;;;;;9.93;100.00;102128.34;6008127;23;20032;-74
2022/10/06 04:53:50;;;;;;;4.72;4.53;;;;;;;9.82;100.00;102114.66;5973076;23;20467;-74
2022/10/06 04:56:22;;;;;;;4.80;4.60;;;;;;;9.49;100.00;102070.94;5972711;23;20019;-74
2022/10/06 04:58:51;;;;;;;4.70;4.50;;;;;;;10.21;100.00;102186.19;5970936;23;20098;-74
2022/10/06 05:01:25;;;;;;;5.82;4.82;;;;;;;10.12;100.00;102191.66;6003921;23;20038;-74
2022/10/06 05:03:57;;;;;;;5.40;5.00;;;;;;;10.04;100.00;102189.25;6002654;23;20495;-75
2022/10/06 05:06:26;;;;;;;4.60;4.40;;;;;;;10.05;100.00;102198.84;5996887;23;20027;-75
2022/10/06 05:08:56;;;;;;;5.22;4.93;;;;;;;9.76;100.00;102165.47;6004427;23;20051;-74
2022/10/06 05:11:23;;;;;;;4.57;4.38;;;;;;;10.00;100.00;102203.34;5967550;23;20030;-75
2022/10/06 05:13:56;;;;;;;9.15;4.65;;;;;;;9.99;100.00;102207.72;5994223;23;20024;-74
2022/10/06 05:16:24;;;;;;;4.35;4.15;;;;;;;9.94;100.00;102214.88;5979778;23;20518;-75
2022/10/06 05:18:50;;;;;;;4.45;4.25;;;;;;;9.75;100.00;102179.50;5966723;23;20041;-74
2022/10/06 05:21:23;;;;;;;5.50;4.82;;;;;;;9.77;100.00;102207.41;5985412;23;20039;-74
2022/10/06 05:23:50;;;;;;;5.47;5.07;;;;;;;9.09;100.00;102086.78;5993950;23;20027;-74
2022/10/06 05:26:22;;;;;;;4.80;4.50;;;;;;;9.42;100.00;102152.34;5971152;23;20107;-74
2022/10/06 05:28:49;;;;;;;5.18;4.95;;;;;;;9.89;100.00;102245.56;6004475;23;20015;-76
2022/10/06 05:31:20;;;;;;;7.45;4.65;;;;;;;9.88;100.00;102243.88;6003402;23;20027;-76
2022/10/06 05:33:47;;;;;;;4.60;4.40;;;;;;;9.81;100.00;102244.91;5983200;23;20460;-74
2022/10/06 05:36:23;;;;;;;6.22;4.30;;;;;;;9.81;100.00;102252.75;6001547;23;20078;-74
2022/10/06 05:38:49;;;;;;;4.38;4.18;;;;;;;9.80;100.00;102261.50;6008054;23;20027;-74
2022/10/06 05:41:18;;;;;;;5.00;4.50;;;;;;;9.74;100.00;102264.28;6001932;23;20015;-75
2022/10/06 05:43:44;;;;;;;4.60;4.38;;;;;;;9.78;100.00;102265.94;5999639;23;20014;-75
2022/10/06 05:46:16;;;;;;;5.10;4.60;;;;;;;9.72;100.00;102276.56;5998478;23;20078;-74
2022/10/06 05:48:47;;;;;;;5.20;4.80;;;;;;;8.66;100.00;102103.44;5993425;23;20025;-73
2022/10/06 05:51:14;;;;;;;5.38;4.25;;;;;;;9.00;100.00;102176.91;5965568;23;20302;-73
2022/10/06 05:53:41;;;;;;;4.50;4.20;;;;;;;9.21;100.00;102217.44;5997599;23;20015;-74
2022/10/06 05:56:13;;;;;;;15.02;4.60;;;;;;;9.59;100.00;102297.81;5995885;23;20036;-73
2022/10/06 05:58:42;;;;;;;4.30;4.10;;;;;;;9.58;100.00;102290.88;5971046;23;20042;-71
2022/10/06 06:01:33;;;;;;;4.75;4.22;;;;;;;9.58;100.00;102303.97;5991812;23;20040;-69
2022/10/06 06:04:03;;;;;;;4.18;3.97;;;;;;;9.58;100.00;102306.59;5959685;23;20093;-70
2022/10/06 06:06:32;;;;;;;4.80;4.28;;;;;;;9.43;100.00;102280.72;5999609;23;20629;-71
2022/10/06 06:09:13;;;;;;;4.43;4.22;;;;;;;9.21;100.00;102258.50;5994829;23;20104;-70
2022/10/06 06:11:42;;;;;;;4.60;4.40;;;;;;;9.56;100.00;102307.50;5995668;23;20423;-71
2022/10/06 06:14:11;;;;;;;4.40;4.20;;;;;;;9.59;100.00;102318.78;5976735;23;20521;-71
2022/10/06 06:16:38;;;;;;;4.90;4.57;;;;;;;9.49;100.00;102298.06;5995692;23;20078;-71
2022/10/06 06:19:06;;;;;;;4.57;4.38;;;;;;;9.61;100.00;102317.91;6009356;23;20027;-71
2022/10/06 06:21:33;;;;;;;4.32;4.00;;;;;;;9.63;100.00;102324.84;5994620;23;20458;-70
2022/10/06 06:24:01;;;;;;;5.28;4.82;;;;;;;9.63;100.00;102329.22;5998751;23;20024;-71
2022/10/06 06:26:29;;;;;;;4.57;4.05;;;;;;;9.30;100.00;102259.19;6000058;23;20478;-70
2022/10/06 06:29:06;;;;;;;4.82;4.45;;;;;;;9.10;100.00;102227.28;5990328;23;20027;-70
2022/10/06 06:31:35;;;;;;;4.80;4.53;;;;;;;9.69;100.00;102332.56;5979216;23;20081;-71
2022/10/06 06:34:05;;;;;;;4.80;4.50;;;;;;;9.62;100.00;102317.00;5991891;23;20019;-71
2022/10/06 06:36:39;;;;;;;5.63;5.05;;;;;;;9.74;100.00;102329.81;5970845;24;20290;-71
2022/10/06 06:39:08;;;;;;;4.93;4.60;;;;;;;9.78;100.00;102345.47;5962174;23;20023;-71
2022/10/06 06:41:37;;;;;;;5.03;4.63;;;;;;;9.46;100.00;102290.25;5974787;23;20090;-71
2022/10/06 06:44:09;;;;;;;4.93;4.72;;;;;;;9.76;100.00;102339.41;5965592;23;20085;-71
2022/10/06 06:46:37;;;;;;;5.38;4.85;;;;;;;9.74;100.00;102316.72;5998065;23;20087;-71
2022/10/06 06:49:04;;;;;;;4.50;4.30;;;;;;;10.05;100.00;102358.00;5969453;23;20035;-71
2022/10/06 06:51:33;;;;;;;4.50;4.15;;;;;;;9.73;100.00;102289.66;5999637;23;20117;-71
2022/10/06 06:54:01;;;;;;;4.57;4.38;;;;;;;10.25;100.00;102355.75;5983922;23;20121;-71
2022/10/06 06:56:33;;;;;;;4.40;4.20;;;;;;;9.98;100.00;102284.69;5980554;23;20027;-71
2022/10/06 06:59:02;;;;;;;4.30;4.10;;;;;;;10.47;100.00;102361.38;5987024;23;20090;-71
2022/10/06 07:01:29;;;;;;;5.97;4.30;;;;;;;10.56;100.00;102365.50;5974840;23;20019;-71
2022/10/06 07:03:59;;;;;;;15.57;4.97;;;;;;;10.71;100.00;102372.16;6001429;23;20571;-71
2022/10/06 07:06:28;;;;;;;5.03;4.72;;;;;;;10.73;100.00;102352.81;5960578;23;20095;-70
2022/10/06 07:08:58;;;;;;;5.25;4.75;;;;;;;10.88;100.00;102367.28;5966327;23;20035;-71
2022/10/06 07:11:35;;;;;;;10.25;5.13;;;;;;;10.93;100.00;102349.66;5985427;23;20023;-70
2022/10/06 07:14:08;;;;;;;5.55;5.25;;;;;;;11.01;100.00;102352.09;5993659;23;20030;-71
2022/10/06 07:25:22;;;;;;;5.93;5.63;;;;;;;11.70;100.00;102410.56;5962514;23;20031;-70
2022/10/06 07:27:52;;;;;;;4.70;4.50;;;;;;;11.47;100.00;102352.56;5995742;23;20418;-71
2022/10/06 07:30:21;;;;;;;4.78;4.38;;;;;;;11.92;100.00;102410.81;5973357;23;20025;-70
2022/10/06 07:32:49;;;;;;;5.20;4.60;;;;;;;12.01;100.00;102414.97;6000775;23;20126;-71
2022/10/06 07:35:19;;;;;;;8.20;4.93;;;;;;;12.10;100.00;102427.81;5980697;23;20841;-70
2022/10/06 07:37:46;;;;;;;5.18;4.90;;;;;;;11.90;100.00;102386.31;5973258;23;20071;-69
2022/10/06 07:40:13;;;;;;;11.10;4.75;;;;;;;12.24;100.00;102427.38;5993035;23;20482;-70
2022/10/06 07:42:52;;;;;;;4.78;4.57;;;;;;;12.14;100.00;102420.69;5994112;23;20633;-70
2022/10/06 07:45:37;;;;;;;5.20;4.90;;;;;;;11.81;100.00;102355.03;5994987;23;20047;-70
2022/10/06 07:48:18;;;;;;;4.95;4.65;;;;;;;12.44;100.00;102446.97;5984591;23;20054;-70
2022/10/06 07:50:48;;;;;;;5.03;4.65;;;;;;;12.03;100.00;102378.03;5997317;23;20011;-71
2022/10/06 07:53:16;;;;;;;11.82;5.10;;;;;;;12.16;100.00;102377.63;5970046;23;20023;-71
2022/10/06 07:55:45;;;;;;;4.80;4.60;;;;;;;12.70;100.00;102451.38;5973087;23;20031;-73
2022/10/06 07:58:17;;;;;;;5.00;4.80;;;;;;;12.77;100.00;102452.91;5955400;24;20039;-71
2022/10/06 08:00:45;;;;;;;5.90;5.43;;;;;;;12.74;100.00;102442.47;5993448;23;20075;-70
2022/10/06 08:03:17;;;;;;;9.63;4.82;;;;;;;12.93;100.00;102459.38;5988454;23;20026;-70
2022/10/06 08:05:49;;;;;;;5.65;4.50;;;;;;;12.73;100.00;102414.41;5992069;23;20008;-71
2022/10/06 08:08:15;;;;;;;4.68;4.47;;;;;;;12.82;100.00;102418.50;5992621;23;20035;-71
2022/10/06 08:10:52;;;;;;;6.13;4.93;;;;;;;13.13;100.00;102457.84;5988207;23;20026;-72
2022/10/06 08:13:19;;;;;;;6.10;4.88;;;;;;;13.22;100.00;102461.94;5971032;23;20107;-70
2022/10/06 08:15:48;;;;;;;5.35;4.97;;;;;;;13.37;100.00;102469.34;5991077;23;20027;-71
2022/10/06 08:18:16;;;;;;;4.95;4.65;;;;;;;13.18;100.00;102440.09;5984864;23;20118;-71
2022/10/06 08:21:10;;;;;;;7.68;4.75;;;;;;;13.41;100.00;102451.63;6000464;23;20220;-70
2022/10/06 08:23:41;;;;;;;6.72;4.65;;;;;;;13.59;100.00;102477.34;5997342;23;20049;-71
2022/10/06 08:26:09;;;;;;;7.15;5.80;;;;;;;13.02;100.00;102392.31;5999328;23;20425;-71
2022/10/06 08:28:36;;;;;;;6.72;4.90;;;;;;;13.71;100.00;102482.19;5996322;23;20057;-71
2022/10/06 08:31:10;;;;;;;5.68;4.90;;;;;;;13.48;100.00;102429.38;5987047;23;20015;-71
2022/10/06 08:33:38;;;;;;;6.97;4.80;;;;;;;13.46;100.00;102426.78;5983058;23;20020;-70
2022/10/06 08:36:07;;;;;;;5.70;5.20;;;;;;;13.15;100.00;102356.69;5998344;23;20097;-71
2022/10/06 08:38:37;;;;;;;8.85;5.20;;;;;;;14.07;100.00;102476.44;5954857;23;20036;-70
2022/10/06 08:41:23;;;;;;;6.32;5.20;;;;;;;14.06;100.00;102484.41;5997246;23;20101;-71
2022/10/06 08:44:20;;;;;;;5.57;5.03;;;;;;;14.05;100.00;102483.56;5994854;23;20062;-70
2022/10/06 08:47:11;;;;;;;8.10;5.05;;;;;;;14.20;99.79;102503.22;5970498;24;20613;-71
2022/10/06 08:49:50;;;;;;;5.72;5.20;;;;;;;13.95;99.56;102439.91;5994543;23;20504;-71
2022/10/06 08:52:19;;;;;;;17.58;5.90;;;;;;;14.41;97.76;102493.56;5994009;23;20019;-70
2022/10/06 08:54:48;;;;;;;10.10;5.65;;;;;;;14.49;97.33;102501.19;5991657;23;20095;-71
2022/10/06 08:57:36;;;;;;;5.25;4.90;;;;;;;14.53;96.84;102508.97;5999095;23;20031;-71
2022/10/06 09:00:15;;;;;;;15.73;5.47;;;;;;;14.51;96.57;102496.72;5995681;23;20091;-71
2022/10/06 09:02:48;;;;;;;5.10;4.80;;;;;;;14.61;94.54;102521.03;5998659;23;20019;-71
2022/10/06 09:05:24;;;;;;;6.18;5.07;;;;;;;14.59;92.25;102507.88;5993831;23;20039;-70
2022/10/06 09:08:12;;;;;;;5.07;4.88;;;;;;;14.70;92.43;102524.16;5969017;23;20007;-70
2022/10/06 09:11:26;;;;;;;5.00;4.70;;;;;;;14.49;92.49;102493.28;5968533;23;20032;-71
2022/10/06 09:14:01;;;;;;;5.20;4.80;;;;;;;14.10;93.07;102398.88;5987448;23;20035;-71
2022/10/06 09:16:33;;;;;;;6.88;5.10;;;;;;;14.80;89.39;102535.22;5969680;23;20024;-71
2022/10/06 09:19:17;;;;;;;6.13;4.97;;;;;;;14.88;88.52;102524.34;6001792;23;20023;-70
2022/10/06 09:21:48;;;;;;;;;;;;;;;15.07;88.67;102532.34;6002506;23;20011;-70
2022/10/06 09:24:24;;;;;;;5.35;4.95;;;;;;;14.87;87.01;102494.38;5997816;23;20048;-71
2022/10/06 09:26:53;;;;;;;6.65;4.75;;;;;;;15.24;86.99;102532.53;5963343;23;20082;-70
2022/10/06 09:29:20;;;;;;;4.97;4.68;;;;;;;14.94;87.91;102480.00;6001169;23;20086;-71
2022/10/06 09:31:49;;;;;;;5.95;4.80;;;;;;;14.93;85.55;102456.25;5971257;23;20634;-71
2022/10/06 09:34:37;;;;;;;4.95;4.75;;;;;;;15.57;84.63;102545.22;5981144;23;20526;-71
2022/10/06 09:37:09;;;;;;;5.18;4.85;;;;;;;15.37;82.48;102514.31;5994119;23;20093;-72
2022/10/06 09:39:43;;;;;;;5.20;4.90;;;;;;;15.82;83.62;102545.03;5967777;23;20020;-71
2022/10/06 09:42:34;;;;;;;5.30;4.93;;;;;;;15.72;81.05;102515.47;5994732;23;20086;-71
2022/10/06 09:45:15;;;;;;;5.38;5.05;;;;;;;15.82;77.96;102547.69;5996768;23;20027;-71
2022/10/06 09:47:44;;;;;;;6.05;4.90;;;;;;;15.97;80.73;102550.56;5965574;23;20655;-71
2022/10/06 09:50:20;;;;;;;5.70;5.20;;;;;;;15.83;79.48;102512.31;5994722;23;20087;-72
2022/10/06 09:53:05;;;;;;;5.53;5.22;;;;;;;16.24;78.60;102553.75;5991032;23;20016;-71
2022/10/06 09:55:37;;;;;;;5.30;5.00;;;;;;;16.35;77.19;102552.28;6007093;23;20051;-71
2022/10/06 09:58:28;;;;;;;5.00;4.80;;;;;;;15.95;76.55;102522.34;5975101;23;20035;-72
2022/10/06 10:00:58;;;;;;;5.40;5.00;;;;;;;16.19;75.10;102551.28;5999539;23;20368;-72
2022/10/06 10:03:40;;;;;;;5.10;4.90;;;;;;;16.14;74.94;102542.72;5994526;23;20035;-71
2022/10/06 10:06:28;;;;;;;6.28;4.90;;;;;;;16.40;75.66;102560.03;5991636;23;20525;-72
2022/10/06 10:09:28;;;;;;;5.65;5.35;;;;;;;15.65;74.43;102397.50;6002478;23;20028;-72
2022/10/06 10:12:28;;;;;;;5.63;5.07;;;;;;;16.25;72.78;102482.13;5948597;23;20114;-71
2022/10/06 10:15:03;;;;;;;14.65;13.93;;;;;;;15.80;73.76;102411.88;5943968;23;20044;-71
2022/10/06 10:17:51;;;;;;;7.68;5.50;;;;;;;16.89;72.70;102557.69;5931679;23;20051;-71
2022/10/06 10:20:23;;;;;;;6.95;4.97;;;;;;;17.01;71.99;102560.69;5999631;23;20568;-72
2022/10/06 10:22:51;;;;;;;5.22;4.72;;;;;;;16.68;72.07;102513.66;5982093;23;20039;-70
2022/10/06 10:25:36;;;;;;;4.88;4.50;;;;;;;16.94;71.50;102553.03;5995289;23;20013;-72
2022/10/06 10:28:16;;;;;;;5.80;5.10;;;;;;;17.12;71.33;102556.56;5961237;23;20149;-70
2022/10/06 10:30:54;;;;;;;5.45;4.57;;;;;;;17.21;69.16;102559.69;5994275;23;20039;-71
2022/10/06 10:33:40;;;;;;;7.20;5.30;;;;;;;17.13;70.22;102526.44;5968312;24;20032;-72
2022/10/06 10:36:29;;;;;;;5.40;5.03;;;;;;;16.64;68.13;102457.28;5973168;23;20564;-71
2022/10/06 10:38:57;;;;;;;5.10;4.80;;;;;;;16.73;67.55;102461.25;5967916;23;20062;-71
2022/10/06 10:41:27;;;;;;;5.57;5.18;;;;;;;17.24;68.32;102568.34;5978826;23;20457;-71
2022/10/06 10:44:09;;;;;;;5.65;5.30;;;;;;;17.40;69.09;102554.28;5948872;23;20036;-71
2022/10/06 10:46:46;;;;;;;7.57;4.87;;;;;;;17.37;67.49;102567.72;5956396;24;20026;-71
2022/10/06 10:49:18;;;;;;;7.30;5.20;;;;;;;17.26;65.67;102544.38;5968134;23;20031;-71
2022/10/06 10:51:54;;;;;;;14.20;5.38;;;;;;;17.40;65.62;102563.13;5997628;23;20324;-72
2022/10/06 10:54:35;;;;;;;5.10;4.70;;;;;;;17.63;65.77;102558.41;5965647;23;20043;-72
2022/10/06 10:57:02;;;;;;;4.97;4.68;;;;;;;17.44;65.47;102510.72;5948619;24;20515;-72
2022/10/06 10:59:32;;;;;;;5.68;5.22;;;;;;;17.57;61.76;102564.91;6000528;23;20029;-71
2022/10/06 11:02:00;;;;;;;5.20;4.90;;;;;;;17.53;61.08;102566.00;5966866;24;20024;-71
2022/10/06 11:04:27;;;;;;;4.93;4.63;;;;;;;17.25;64.19;102514.34;5993596;23;20034;-71
2022/10/06 11:07:23;;;;;;;5.07;4.78;;;;;;;17.76;62.67;102559.50;5971123;23;20688;-71
2022/10/06 11:10:01;;;;;;;5.35;5.05;;;;;;;17.25;61.52;102437.38;5984045;23;20093;-72
2022/10/06 11:12:47;;;;;;;7.53;4.78;;;;;;;17.85;62.74;102582.09;5931695;24;20024;-71
2022/10/06 11:15:32;;;;;;;6.63;5.25;;;;;;;18.02;61.96;102575.84;5995409;23;20031;-71
2022/10/06 11:18:12;;;;;;;4.93;4.63;;;;;;;18.01;60.59;102590.94;5961543;23;20039;-71
2022/10/06 11:20:56;;;;;;;5.22;4.93;;;;;;;17.06;60.60;102391.53;5993720;23;20016;-71
2022/10/06 11:23:39;;;;;;;5.35;5.03;;;;;;;17.94;59.14;102581.56;5967098;23;20043;-72
2022/10/06 11:26:34;;;;;;;5.32;4.93;;;;;;;17.73;59.77;102551.69;5999582;23;20026;-73
2022/10/06 11:29:25;;;;;;;5.10;4.85;;;;;;;18.15;58.78;102595.53;5964252;24;20032;-72
2022/10/06 11:32:15;;;;;;;4.90;4.63;;;;;;;17.05;57.68;102472.91;5998795;23;20031;-72
2022/10/06 11:34:43;;;;;;;5.00;4.60;;;;;;;17.94;57.91;102590.44;5968516;23;20028;-73
2022/10/06 11:37:33;;;;;;;5.50;5.10;;;;;;;18.11;59.15;102591.31;5989952;23;20043;-72
2022/10/06 11:40:25;;;;;;;4.90;4.70;;;;;;;18.20;56.93;102580.19;5944444;24;20784;-72
2022/10/06 11:43:04;;;;;;;5.00;4.75;;;;;;;18.38;58.14;102588.09;5993828;23;20427;-71
2022/10/06 11:45:54;;;;;;;5.10;4.80;;;;;;;18.52;59.24;102581.09;5965824;23;20035;-72
2022/10/06 11:48:25;;;;;;;5.15;4.85;;;;;;;18.66;60.58;102587.41;5943942;23;20522;-72
2022/10/06 11:50:54;;;;;;;5.28;4.85;;;;;;;18.38;58.60;102582.78;5971023;23;20032;-72
2022/10/06 11:53:37;;;;;;;5.55;5.20;;;;;;;18.39;61.16;102576.53;5940019;24;20032;-72
2022/10/06 11:56:16;;;;;;;5.15;4.85;;;;;;;18.57;60.19;102586.13;5965415;23;20367;-71
2022/10/06 11:58:54;;;;;;;5.10;4.90;;;;;;;18.80;60.89;102595.50;5971351;23;20069;-72